CheckWX is a tool to help pilots better visualize weather data.  It is not intended as a substitute for an official pre-flight weather briefing.

01:03:41 UTC

SGEN TAF
Encarnación Airport
Encarnación, Paraguay
TAF SGEN 232135Z 2400/2500 30008KT CAVOK TX37/2419Z TN26/2409Z BECMG 2401/2405 06010KT CAVOK BECMG 2412/2414 02016KT

Feb-24@
00:00 UTC

Feb-24 @ 00:00 UTC

Feb-24@
01:00 UTC

Feb-24 @ 01:00 UTC

TAF SGEN 232135Z 2400/2500 30008KT CAVOK TX37/2419Z TN26/2409Z

Expired

Wind
  • 300° at 8 KTS
Cloud Levels
  • No significant clouds

Feb-24@
01:00 UTC

Feb-24 @ 01:00 UTC

Feb-24@
12:00 UTC

Feb-24 @ 12:00 UTC

BECMG 2401/2405 06010KT CAVOK

Becoming

Becoming Conditions expected by Sun, Feb 24, 2019 @ 05:00 UTC

Wind
  • 060° at 10 KTS
Conditions
No significant weather
Cloud Levels
  • No significant clouds

Feb-24@
12:00 UTC

Feb-24 @ 12:00 UTC

Feb-25@
00:00 UTC

Feb-25 @ 00:00 UTC

BECMG 2412/2414 02016KT

Becoming

Becoming Conditions expected by Sun, Feb 24, 2019 @ 14:00 UTC

Wind
  • 020° at 16 KTS
Conditions
No significant weather
Cloud Levels
  • No significant clouds